createdAt,value
2024-01-07T00:01:34.718Z,98853.20
2024-01-07T00:05:25.015Z,98859.60
2024-01-07T00:09:14.639Z,98857.20
2024-01-07T00:13:04.607Z,98856.00
2024-01-07T00:16:55.325Z,98849.20
2024-01-07T00:20:45.673Z,98850.60
2024-01-07T00:24:34.999Z,98840.00
2024-01-07T00:28:24.425Z,98828.80
2024-01-07T00:32:14.046Z,98819.40
2024-01-07T00:36:03.505Z,98821.60
2024-01-07T00:39:53.023Z,98838.00
2024-01-07T00:43:42.518Z,98851.40
2024-01-07T00:47:30.696Z,98857.20
2024-01-07T00:51:20.750Z,98859.80
2024-01-07T00:55:10.144Z,98854.60
2024-01-07T00:58:59.662Z,98855.00
2024-01-07T01:02:48.998Z,98838.00
2024-01-07T01:06:39.147Z,98834.80
2024-01-07T01:10:21.645Z,98829.00
2024-01-07T01:14:03.800Z,98825.60
2024-01-07T01:17:46.462Z,98821.80
2024-01-07T01:21:35.910Z,98808.20
2024-01-07T01:25:25.428Z,98812.00
2024-01-07T01:29:16.581Z,98814.20
2024-01-07T01:33:06.215Z,98817.20
2024-01-07T01:36:55.687Z,98815.00
2024-01-07T01:40:44.018Z,98816.60
2024-01-07T01:44:29.529Z,98810.40
2024-01-07T01:48:19.364Z,98806.20
2024-01-07T01:52:01.845Z,98810.20
2024-01-07T01:55:51.933Z,98800.60
2024-01-07T01:59:41.269Z,98794.60
2024-01-07T02:03:31.141Z,98786.00
2024-01-07T02:07:21.102Z,98788.40
2024-01-07T02:11:03.122Z,98793.20
2024-01-07T02:14:53.571Z,98788.40
2024-01-07T02:18:44.244Z,98778.40
2024-01-07T02:22:34.702Z,98770.40
2024-01-07T02:26:24.112Z,98769.60
2024-01-07T02:30:13.852Z,98755.00
2024-01-07T02:34:05.155Z,98744.60
2024-01-07T02:37:54.592Z,98738.40
2024-01-07T02:41:44.013Z,98734.40
2024-01-07T02:45:27.514Z,98744.40
2024-01-07T02:49:17.085Z,98744.40
2024-01-07T02:53:00.353Z,98736.40
2024-01-07T02:56:50.373Z,98736.40
2024-01-07T03:00:35.568Z,98738.40
2024-01-07T03:04:19.128Z,98733.20
2024-01-07T03:08:09.617Z,98725.40
2024-01-07T03:11:58.950Z,98715.40
2024-01-07T03:15:49.589Z,98705.20
2024-01-07T03:19:31.349Z,98701.40
2024-01-07T03:23:13.454Z,98691.80
2024-01-07T03:27:03.512Z,98695.20
2024-01-07T03:30:53.057Z,98701.80
2024-01-07T03:34:43.191Z,98710.20
2024-01-07T03:38:28.143Z,98713.40
2024-01-07T03:42:17.536Z,98707.60
2024-01-07T03:46:08.481Z,98704.20
2024-01-07T03:49:58.236Z,98703.60
2024-01-07T03:53:48.820Z,98696.60
2024-01-07T03:57:38.036Z,98695.80
2024-01-07T04:01:28.093Z,98695.80
2024-01-07T04:05:17.481Z,98681.40
2024-01-07T04:09:06.765Z,98677.00
2024-01-07T04:12:56.936Z,98682.00
2024-01-07T04:16:46.810Z,98671.00
2024-01-07T04:20:41.011Z,98658.40
2024-01-07T04:24:13.585Z,98657.20
2024-01-07T04:28:03.358Z,98651.40
2024-01-07T04:31:52.712Z,98657.20
2024-01-07T04:35:43.249Z,98666.80
2024-01-07T04:39:31.938Z,98674.40
2024-01-07T04:43:14.222Z,98670.00
2024-01-07T04:47:03.649Z,98662.40
2024-01-07T04:50:45.666Z,98660.20
2024-01-07T04:54:35.164Z,98658.40
2024-01-07T04:58:26.959Z,98668.80
2024-01-07T05:02:16.302Z,98661.00
2024-01-07T05:06:05.886Z,98660.80
2024-01-07T05:09:56.366Z,98656.80
2024-01-07T05:13:46.499Z,98663.40
2024-01-07T05:17:36.591Z,98664.00
2024-01-07T05:21:19.454Z,98660.80
2024-01-07T05:25:08.951Z,98660.40
2024-01-07T05:28:49.877Z,98656.20
2024-01-07T05:32:39.608Z,98657.00
2024-01-07T05:36:29.886Z,98650.80
2024-01-07T05:40:19.935Z,98639.40
2024-01-07T05:44:00.267Z,98628.20
2024-01-07T05:47:51.597Z,98619.60
2024-01-07T05:51:41.222Z,98619.80
2024-01-07T05:55:24.673Z,98614.00
2024-01-07T05:59:14.422Z,98620.20
2024-01-07T06:03:03.833Z,98626.20
2024-01-07T06:06:54.804Z,98615.40
2024-01-07T06:10:44.578Z,98604.60
2024-01-07T06:14:34.124Z,98607.00
2024-01-07T06:18:25.053Z,98602.20
2024-01-07T06:22:15.938Z,98589.20
2024-01-07T06:26:05.552Z,98585.40
2024-01-07T06:29:55.347Z,98579.00
2024-01-07T06:33:44.960Z,98582.20
2024-01-07T06:37:35.632Z,98575.80
2024-01-07T06:41:25.092Z,98574.60
2024-01-07T06:45:07.100Z,98567.40
2024-01-07T06:48:56.530Z,98560.40
2024-01-07T06:52:46.072Z,98557.40
2024-01-07T06:56:35.497Z,98561.80
2024-01-07T07:00:24.925Z,98557.00
2024-01-07T07:04:15.910Z,98549.80
2024-01-07T07:08:05.943Z,98544.60
2024-01-07T07:11:54.607Z,98547.00
2024-01-07T07:15:44.544Z,98548.40
2024-01-07T07:19:19.692Z,98544.40
2024-01-07T07:23:09.192Z,98541.80
2024-01-07T07:26:58.710Z,98543.20
2024-01-07T07:30:51.893Z,98543.40
2024-01-07T07:34:42.775Z,98529.60
2024-01-07T07:38:32.049Z,98527.40
2024-01-07T07:42:21.448Z,98523.00
2024-01-07T07:46:11.010Z,98515.20
2024-01-07T07:50:00.618Z,98519.80
2024-01-07T07:53:50.116Z,98508.40
2024-01-07T07:57:31.966Z,98496.80
2024-01-07T08:01:21.532Z,98497.20
2024-01-07T08:05:12.098Z,98486.40
2024-01-07T08:08:55.307Z,98482.00
2024-01-07T08:12:44.941Z,98478.80
2024-01-07T08:16:34.404Z,98469.60
2024-01-07T08:20:23.914Z,98465.40
2024-01-07T08:24:13.586Z,98455.80
2024-01-07T08:28:01.878Z,98453.80
2024-01-07T08:31:34.713Z,98452.40
2024-01-07T08:35:24.949Z,98458.20
2024-01-07T08:39:09.634Z,98449.00
2024-01-07T08:42:42.426Z,98438.80
2024-01-07T08:46:17.288Z,98436.60
2024-01-07T08:49:37.369Z,98430.40
2024-01-07T08:53:27.276Z,98431.20
2024-01-07T08:57:16.850Z,98437.00
2024-01-07T09:01:07.624Z,98431.80
2024-01-07T09:04:39.890Z,98418.60
2024-01-07T09:08:22.606Z,98408.80
2024-01-07T09:12:12.037Z,98399.20
2024-01-07T09:16:01.678Z,98380.40
2024-01-07T09:19:50.063Z,98376.40
2024-01-07T09:23:39.501Z,98366.80
2024-01-07T09:27:28.925Z,98355.20
2024-01-07T09:31:18.561Z,98349.40
2024-01-07T09:35:08.704Z,98331.20
2024-01-07T09:38:51.778Z,98317.80
2024-01-07T09:42:42.714Z,98312.40
2024-01-07T09:46:31.978Z,98323.00
2024-01-07T09:50:15.023Z,98338.80
2024-01-07T09:54:04.520Z,98334.20
2024-01-07T09:57:55.007Z,98323.00
2024-01-07T10:01:45.460Z,98318.80
2024-01-07T10:05:35.942Z,98319.40
2024-01-07T10:09:25.617Z,98315.40
2024-01-07T10:13:15.782Z,98306.80
2024-01-07T10:17:05.745Z,98315.40
2024-01-07T10:20:54.865Z,98312.60
2024-01-07T10:24:54.453Z,98313.20
2024-01-07T10:28:43.934Z,98308.80
2024-01-07T10:32:36.240Z,98303.20
2024-01-07T10:36:25.877Z,98303.00
2024-01-07T10:40:15.611Z,98302.40
2024-01-07T10:44:06.210Z,98307.60
2024-01-07T10:47:56.633Z,98312.40
2024-01-07T10:51:46.936Z,98295.40
2024-01-07T10:55:39.064Z,98306.60
2024-01-07T10:59:29.142Z,98305.40
2024-01-07T11:03:18.720Z,98304.40
2024-01-07T11:07:12.549Z,98302.00
2024-01-07T11:11:00.180Z,98295.80
2024-01-07T11:14:47.514Z,98304.40
2024-01-07T11:18:39.869Z,98298.80
2024-01-07T11:22:22.932Z,98290.40
2024-01-07T11:26:25.353Z,98302.60
2024-01-07T11:30:14.764Z,98298.00
2024-01-07T11:34:03.918Z,98297.40
2024-01-07T11:37:53.680Z,98286.60
2024-01-07T11:41:37.362Z,98289.00
2024-01-07T11:45:27.503Z,98293.60
2024-01-07T11:49:17.003Z,98298.40
2024-01-07T11:52:56.587Z,98291.40
2024-01-07T11:56:40.029Z,98289.80
2024-01-07T12:00:30.331Z,98286.40
2024-01-07T12:04:19.886Z,98283.80
2024-01-07T12:08:09.951Z,98292.80
2024-01-07T12:11:57.815Z,98287.20
2024-01-07T12:15:46.901Z,98288.80
2024-01-07T12:19:31.672Z,98293.60
2024-01-07T12:23:21.882Z,98287.40
2024-01-07T12:27:11.756Z,98293.60
2024-01-07T12:31:01.241Z,98293.20
2024-01-07T12:34:51.343Z,98291.80
2024-01-07T12:38:40.053Z,98298.20
2024-01-07T12:42:30.032Z,98293.80
2024-01-07T12:46:20.066Z,98292.40
2024-01-07T12:50:10.858Z,98295.20
2024-01-07T12:53:53.673Z,98291.20
2024-01-07T12:57:43.105Z,98302.20
2024-01-07T13:01:25.567Z,98305.80
2024-01-07T13:05:15.601Z,98306.60
2024-01-07T13:09:06.338Z,98313.00
2024-01-07T13:13:00.816Z,98309.00
2024-01-07T13:16:54.587Z,98309.80
2024-01-07T13:20:44.077Z,98312.20
2024-01-07T13:24:32.302Z,98307.40
2024-01-07T13:28:22.623Z,98305.60
2024-01-07T13:32:04.940Z,98306.80
2024-01-07T13:35:53.261Z,98305.40
2024-01-07T13:39:42.732Z,98311.80
2024-01-07T13:43:32.862Z,98312.60
2024-01-07T13:47:01.774Z,98312.00
2024-01-07T13:50:52.260Z,98310.60
2024-01-07T13:54:42.140Z,98316.00
2024-01-07T13:58:31.625Z,98314.60
2024-01-07T14:02:21.120Z,98319.20
2024-01-07T14:06:10.739Z,98328.00
2024-01-07T14:10:00.409Z,98326.80
2024-01-07T14:13:51.282Z,98329.00
2024-01-07T14:17:41.266Z,98335.60
2024-01-07T14:21:30.716Z,98337.60
2024-01-07T14:25:20.251Z,98334.40
2024-01-07T14:29:16.230Z,98349.20
2024-01-07T14:33:08.578Z,98351.60
2024-01-07T14:36:51.140Z,98360.20
2024-01-07T14:40:40.878Z,98368.40
2024-01-07T14:44:14.409Z,98367.40
2024-01-07T14:48:05.550Z,98383.60
2024-01-07T14:51:47.447Z,98370.60
2024-01-07T14:55:37.687Z,98369.40
2024-01-07T14:59:20.016Z,98371.60
2024-01-07T15:03:10.212Z,98370.00
2024-01-07T15:07:00.783Z,98370.60
2024-01-07T15:10:50.326Z,98376.60
2024-01-07T15:14:40.367Z,98379.80
2024-01-07T15:18:30.126Z,98379.20
2024-01-07T15:22:20.222Z,98384.40
2024-01-07T15:26:09.886Z,98382.60
2024-01-07T15:34:05.785Z,98381.40
2024-01-07T15:37:55.276Z,98379.00
2024-01-07T15:41:44.424Z,98382.00
2024-01-07T15:45:34.529Z,98383.20
2024-01-07T15:49:24.383Z,98390.20
2024-01-07T15:53:12.577Z,98394.00
2024-01-07T15:57:05.461Z,98407.80
2024-01-07T16:00:55.596Z,98408.60
2024-01-07T16:04:40.104Z,98409.00
2024-01-07T16:08:30.114Z,98411.40
2024-01-07T16:12:19.601Z,98407.60
2024-01-07T16:16:09.157Z,98399.80
2024-01-07T16:19:58.698Z,98398.80
2024-01-07T16:23:47.920Z,98387.80
2024-01-07T16:27:37.456Z,98385.20
2024-01-07T16:31:14.160Z,98386.60
2024-01-07T16:34:57.171Z,98391.00
2024-01-07T16:38:33.376Z,98392.00
2024-01-07T16:42:23.080Z,98395.20
2024-01-07T16:46:13.725Z,98398.20
2024-01-07T16:50:21.204Z,98412.60
2024-01-07T16:54:05.026Z,98427.80
2024-01-07T16:57:47.302Z,98430.60
2024-01-07T17:01:29.043Z,98428.80
2024-01-07T17:05:19.003Z,98434.80
2024-01-07T17:09:01.763Z,98434.00
2024-01-07T17:12:33.947Z,98429.60
2024-01-07T17:16:21.176Z,98426.80
2024-01-07T17:20:11.161Z,98429.80
2024-01-07T17:24:00.530Z,98436.20
2024-01-07T17:27:22.735Z,98445.80
2024-01-07T17:31:12.863Z,98445.80
2024-01-07T17:35:02.033Z,98442.20
2024-01-07T17:38:44.956Z,98442.40
2024-01-07T17:42:24.332Z,98446.80
2024-01-07T17:45:59.191Z,98443.00
2024-01-07T17:49:49.264Z,98449.60
2024-01-07T17:53:38.808Z,98444.20
2024-01-07T17:57:28.764Z,98451.00
2024-01-07T18:01:06.900Z,98446.00
2024-01-07T18:04:56.273Z,98438.80
2024-01-07T18:08:52.183Z,98440.60
2024-01-07T18:12:38.292Z,98447.40
2024-01-07T18:16:27.749Z,98444.80
2024-01-07T18:20:17.512Z,98443.80
2024-01-07T18:24:06.968Z,98446.40
2024-01-07T18:27:48.845Z,98437.20
2024-01-07T18:31:38.450Z,98431.20
2024-01-07T18:35:28.043Z,98434.00
2024-01-07T18:39:18.218Z,98436.40
2024-01-07T18:43:07.936Z,98440.00
2024-01-07T18:46:57.501Z,98435.20
2024-01-07T18:50:47.424Z,98428.00
2024-01-07T18:54:36.935Z,98435.40
2024-01-07T18:58:26.344Z,98438.80
2024-01-07T19:02:15.705Z,98445.20
2024-01-07T19:06:05.366Z,98448.60
2024-01-07T19:09:55.614Z,98450.80
2024-01-07T19:13:45.146Z,98455.00
2024-01-07T19:17:35.341Z,98455.60
2024-01-07T19:21:28.661Z,98458.60
2024-01-07T19:25:17.561Z,98464.20
2024-01-07T19:28:58.383Z,98466.20
2024-01-07T19:32:48.757Z,98476.20
2024-01-07T19:36:39.189Z,98478.20
2024-01-07T19:40:29.027Z,98477.40
2024-01-07T19:44:21.098Z,98477.40
2024-01-07T19:48:12.837Z,98479.20
2024-01-07T19:52:02.500Z,98485.00
2024-01-07T19:55:53.019Z,98488.00
2024-01-07T19:59:41.538Z,98495.80
2024-01-07T20:03:27.516Z,98497.20
2024-01-07T20:07:17.765Z,98502.40
2024-01-07T20:11:07.150Z,98506.40
2024-01-07T20:14:57.682Z,98516.60
2024-01-07T20:18:43.204Z,98521.00
2024-01-07T20:22:27.561Z,98529.00
2024-01-07T20:26:17.775Z,98523.40
2024-01-07T20:30:00.189Z,98527.80
2024-01-07T20:33:42.275Z,98522.40
2024-01-07T20:37:32.156Z,98523.20
2024-01-07T20:41:21.875Z,98538.00
2024-01-07T20:45:12.316Z,98539.40
2024-01-07T20:49:02.516Z,98536.00
2024-01-07T20:52:52.541Z,98539.80
2024-01-07T20:56:43.209Z,98545.00
2024-01-07T21:00:20.760Z,98552.80
2024-01-07T21:04:10.442Z,98552.40
2024-01-07T21:08:00.510Z,98557.80
2024-01-07T21:11:35.833Z,98556.60
2024-01-07T21:15:25.336Z,98563.00
2024-01-07T21:19:05.695Z,98565.80
2024-01-07T21:22:55.095Z,98568.00
2024-01-07T21:26:42.535Z,98571.60
2024-01-07T21:30:24.711Z,98571.20
2024-01-07T21:34:15.136Z,98575.40
2024-01-07T21:38:04.717Z,98576.20
2024-01-07T21:41:54.256Z,98579.80
2024-01-07T21:45:44.715Z,98581.80
2024-01-07T21:49:26.767Z,98590.40
2024-01-07T21:53:10.217Z,98586.20
2024-01-07T21:56:59.687Z,98594.60
2024-01-07T22:00:50.007Z,98598.20
2024-01-07T22:04:39.392Z,98601.00
2024-01-07T22:08:22.762Z,98605.20
2024-01-07T22:12:18.096Z,98604.80
2024-01-07T22:16:08.543Z,98603.00
2024-01-07T22:19:50.894Z,98605.80
2024-01-07T22:23:39.418Z,98608.80
2024-01-07T22:27:29.290Z,98608.80
2024-01-07T22:31:19.935Z,98616.80
2024-01-07T22:35:09.381Z,98611.80
2024-01-07T22:38:59.456Z,98610.00
2024-01-07T22:42:47.633Z,98609.40
2024-01-07T22:46:15.161Z,98609.20
2024-01-07T22:50:14.446Z,98607.60
2024-01-07T22:54:03.928Z,98610.40
2024-01-07T22:57:53.612Z,98616.40
2024-01-07T23:01:43.150Z,98621.00
2024-01-07T23:05:26.500Z,98618.80
2024-01-07T23:09:11.022Z,98622.40
2024-01-07T23:12:53.754Z,98630.60
2024-01-07T23:16:43.149Z,98624.20
2024-01-07T23:20:32.217Z,98624.20
2024-01-07T23:24:24.452Z,98630.60
2024-01-07T23:28:08.081Z,98628.80
2024-01-07T23:32:02.293Z,98634.40
2024-01-07T23:35:54.392Z,98636.40
2024-01-07T23:39:37.108Z,98639.80
2024-01-07T23:43:19.053Z,98640.80
2024-01-07T23:47:08.832Z,98645.00
2024-01-07T23:50:59.161Z,98644.40
2024-01-07T23:54:47.638Z,98651.60
2024-01-07T23:58:38.165Z,98655.80
